sensor_id;sensor_type;location;lat;lon;timestamp;temperature;humidity
20349;DHT22;10332;50.208;18.988;2022-11-20T00:01:31;-2.60;98.30
20349;DHT22;10332;50.208;18.988;2022-11-20T00:04:00;-2.70;98.60
20349;DHT22;10332;50.208;18.988;2022-11-20T00:06:28;-2.70;98.20
20349;DHT22;10332;50.208;18.988;2022-11-20T00:08:58;-2.70;98.00
20349;DHT22;10332;50.208;18.988;2022-11-20T00:11:28;-2.70;97.70
20349;DHT22;10332;50.208;18.988;2022-11-20T00:13:58;-2.70;97.50
20349;DHT22;10332;50.208;18.988;2022-11-20T00:16:29;-2.70;97.30
20349;DHT22;10332;50.208;18.988;2022-11-20T00:18:58;-2.70;97.20
20349;DHT22;10332;50.208;18.988;2022-11-20T00:21:27;-2.70;97.90
20349;DHT22;10332;50.208;18.988;2022-11-20T00:23:56;-2.70;98.90
20349;DHT22;10332;50.208;18.988;2022-11-20T00:26:25;-2.70;98.80
20349;DHT22;10332;50.208;18.988;2022-11-20T00:28:56;-2.70;98.90
20349;DHT22;10332;50.208;18.988;2022-11-20T00:31:25;-2.70;99.30
20349;DHT22;10332;50.208;18.988;2022-11-20T00:33:53;-2.70;99.80
20349;DHT22;10332;50.208;18.988;2022-11-20T00:36:23;-2.80;99.90
20349;DHT22;10332;50.208;18.988;2022-11-20T00:38:54;-2.70;99.90
20349;DHT22;10332;50.208;18.988;2022-11-20T00:41:23;-2.70;99.90
20349;DHT22;10332;50.208;18.988;2022-11-20T00:43:52;-2.80;99.90
20349;DHT22;10332;50.208;18.988;2022-11-20T00:46:22;-2.80;99.90
20349;DHT22;10332;50.208;18.988;2022-11-20T00:48:52;-2.80;99.90
20349;DHT22;10332;50.208;18.988;2022-11-20T00:51:23;-2.80;99.90
20349;DHT22;10332;50.208;18.988;2022-11-20T00:53:55;-2.80;99.90
20349;DHT22;10332;50.208;18.988;2022-11-20T00:56:23;-2.80;99.90
20349;DHT22;10332;50.208;18.988;2022-11-20T00:58:51;-2.80;99.90
20349;DHT22;10332;50.208;18.988;2022-11-20T01:01:23;-2.80;99.90
20349;DHT22;10332;50.208;18.988;2022-11-20T01:03:54;-2.90;99.90
20349;DHT22;10332;50.208;18.988;2022-11-20T01:06:26;-2.90;99.90
20349;DHT22;10332;50.208;18.988;2022-11-20T01:08:59;-2.90;99.90
20349;DHT22;10332;50.208;18.988;2022-11-20T01:11:30;-3.00;99.90
20349;DHT22;10332;50.208;18.988;2022-11-20T01:14:01;-3.00;99.90
20349;DHT22;10332;50.208;18.988;2022-11-20T01:16:33;-3.00;99.90
20349;DHT22;10332;50.208;18.988;2022-11-20T01:19:05;-3.00;99.90
20349;DHT22;10332;50.208;18.988;2022-11-20T01:21:36;-3.00;99.90
20349;DHT22;10332;50.208;18.988;2022-11-20T01:24:08;-3.00;99.90
20349;DHT22;10332;50.208;18.988;2022-11-20T01:26:39;-3.00;99.90
20349;DHT22;10332;50.208;18.988;2022-11-20T01:29:28;-3.00;99.90
20349;DHT22;10332;50.208;18.988;2022-11-20T01:31:55;-3.00;99.90
20349;DHT22;10332;50.208;18.988;2022-11-20T01:34:23;-3.00;99.90
20349;DHT22;10332;50.208;18.988;2022-11-20T01:36:51;-3.00;99.90
20349;DHT22;10332;50.208;18.988;2022-11-20T01:39:24;-2.90;99.90
20349;DHT22;10332;50.208;18.988;2022-11-20T01:41:54;-2.90;99.90
20349;DHT22;10332;50.208;18.988;2022-11-20T01:47:34;-2.90;99.90
20349;DHT22;10332;50.208;18.988;2022-11-20T01:50:25;-2.90;99.90
20349;DHT22;10332;50.208;18.988;2022-11-20T01:53:03;-2.90;99.90
20349;DHT22;10332;50.208;18.988;2022-11-20T01:55:39;-3.00;99.70
20349;DHT22;10332;50.208;18.988;2022-11-20T01:58:11;-3.00;99.40
20349;DHT22;10332;50.208;18.988;2022-11-20T02:00:40;-3.00;99.40
20349;DHT22;10332;50.208;18.988;2022-11-20T02:03:11;-3.00;99.10
20349;DHT22;10332;50.208;18.988;2022-11-20T02:08:28;-3.10;99.50
20349;DHT22;10332;50.208;18.988;2022-11-20T02:10:56;-3.10;99.90
20349;DHT22;10332;50.208;18.988;2022-11-20T02:13:23;-3.20;99.90
20349;DHT22;10332;50.208;18.988;2022-11-20T02:16:37;-3.20;99.90
20349;DHT22;10332;50.208;18.988;2022-11-20T02:19:22;-3.30;99.90
20349;DHT22;10332;50.208;18.988;2022-11-20T02:22:14;-3.30;99.90
20349;DHT22;10332;50.208;18.988;2022-11-20T02:25:05;-3.30;99.90
20349;DHT22;10332;50.208;18.988;2022-11-20T02:27:35;-3.30;99.90
20349;DHT22;10332;50.208;18.988;2022-11-20T02:30:06;-3.30;99.90
20349;DHT22;10332;50.208;18.988;2022-11-20T02:32:36;-3.30;99.90
20349;DHT22;10332;50.208;18.988;2022-11-20T02:37:49;-3.20;99.90
20349;DHT22;10332;50.208;18.988;2022-11-20T02:40:19;-3.20;99.90
20349;DHT22;10332;50.208;18.988;2022-11-20T02:42:47;-3.20;99.90
20349;DHT22;10332;50.208;18.988;2022-11-20T02:45:14;-3.20;99.90
20349;DHT22;10332;50.208;18.988;2022-11-20T02:47:42;-3.20;99.90
20349;DHT22;10332;50.208;18.988;2022-11-20T02:50:09;-3.20;99.90
20349;DHT22;10332;50.208;18.988;2022-11-20T02:52:37;-3.20;99.90
20349;DHT22;10332;50.208;18.988;2022-11-20T02:55:05;-3.20;99.90
20349;DHT22;10332;50.208;18.988;2022-11-20T02:57:33;-3.20;99.90
20349;DHT22;10332;50.208;18.988;2022-11-20T03:00:00;-3.30;99.90
20349;DHT22;10332;50.208;18.988;2022-11-20T03:02:31;-3.30;99.90
20349;DHT22;10332;50.208;18.988;2022-11-20T03:04:59;-3.30;99.90
20349;DHT22;10332;50.208;18.988;2022-11-20T03:07:27;-3.30;99.90
20349;DHT22;10332;50.208;18.988;2022-11-20T03:09:54;-3.30;99.90
20349;DHT22;10332;50.208;18.988;2022-11-20T03:12:22;-3.30;99.90
20349;DHT22;10332;50.208;18.988;2022-11-20T03:14:49;-3.30;99.90
20349;DHT22;10332;50.208;18.988;2022-11-20T03:17:19;-3.30;99.90
20349;DHT22;10332;50.208;18.988;2022-11-20T03:19:46;-3.30;99.90
20349;DHT22;10332;50.208;18.988;2022-11-20T03:22:14;-3.30;99.90
20349;DHT22;10332;50.208;18.988;2022-11-20T03:24:41;-3.20;99.90
20349;DHT22;10332;50.208;18.988;2022-11-20T03:27:09;-3.20;99.90
20349;DHT22;10332;50.208;18.988;2022-11-20T03:29:36;-3.20;99.90
20349;DHT22;10332;50.208;18.988;2022-11-20T03:32:04;-3.20;99.90
20349;DHT22;10332;50.208;18.988;2022-11-20T03:34:32;-3.20;99.90
20349;DHT22;10332;50.208;18.988;2022-11-20T03:36:59;-3.20;99.90
20349;DHT22;10332;50.208;18.988;2022-11-20T03:39:26;-3.20;99.90
20349;DHT22;10332;50.208;18.988;2022-11-20T03:41:54;-3.20;99.90
20349;DHT22;10332;50.208;18.988;2022-11-20T03:44:21;-3.20;99.90
20349;DHT22;10332;50.208;18.988;2022-11-20T03:46:49;-3.10;99.90
20349;DHT22;10332;50.208;18.988;2022-11-20T03:49:16;-3.10;99.90
20349;DHT22;10332;50.208;18.988;2022-11-20T03:51:44;-3.10;99.90
20349;DHT22;10332;50.208;18.988;2022-11-20T03:54:11;-3.10;99.90
20349;DHT22;10332;50.208;18.988;2022-11-20T03:56:38;-3.10;99.90
20349;DHT22;10332;50.208;18.988;2022-11-20T03:59:06;-3.10;99.90
20349;DHT22;10332;50.208;18.988;2022-11-20T04:01:36;-3.10;99.90
20349;DHT22;10332;50.208;18.988;2022-11-20T04:04:04;-3.10;99.80
20349;DHT22;10332;50.208;18.988;2022-11-20T04:06:37;-3.10;99.20
20349;DHT22;10332;50.208;18.988;2022-11-20T04:09:05;-3.10;98.90
20349;DHT22;10332;50.208;18.988;2022-11-20T04:11:35;-3.20;97.80
20349;DHT22;10332;50.208;18.988;2022-11-20T04:14:07;-3.20;97.60
20349;DHT22;10332;50.208;18.988;2022-11-20T04:16:40;-3.20;97.80
20349;DHT22;10332;50.208;18.988;2022-11-20T04:19:13;-3.30;98.40
20349;DHT22;10332;50.208;18.988;2022-11-20T04:21:43;-3.30;99.00
20349;DHT22;10332;50.208;18.988;2022-11-20T04:24:11;-3.30;99.10
20349;DHT22;10332;50.208;18.988;2022-11-20T04:26:39;-3.30;99.70
20349;DHT22;10332;50.208;18.988;2022-11-20T04:29:10;-3.20;99.20
20349;DHT22;10332;50.208;18.988;2022-11-20T04:31:38;-3.20;98.90
20349;DHT22;10332;50.208;18.988;2022-11-20T04:34:07;-3.20;98.90
20349;DHT22;10332;50.208;18.988;2022-11-20T04:36:34;-3.20;98.40
20349;DHT22;10332;50.208;18.988;2022-11-20T04:39:04;-3.20;97.80
20349;DHT22;10332;50.208;18.988;2022-11-20T04:41:35;-3.20;97.50
20349;DHT22;10332;50.208;18.988;2022-11-20T04:44:05;-3.20;97.50
20349;DHT22;10332;50.208;18.988;2022-11-20T04:46:35;-3.20;97.10
20349;DHT22;10332;50.208;18.988;2022-11-20T04:49:05;-3.20;97.00
20349;DHT22;10332;50.208;18.988;2022-11-20T04:51:33;-3.20;96.70
20349;DHT22;10332;50.208;18.988;2022-11-20T04:54:01;-3.20;96.40
20349;DHT22;10332;50.208;18.988;2022-11-20T04:56:29;-3.20;95.90
20349;DHT22;10332;50.208;18.988;2022-11-20T04:59:00;-3.30;95.50
20349;DHT22;10332;50.208;18.988;2022-11-20T05:01:29;-3.30;95.30
20349;DHT22;10332;50.208;18.988;2022-11-20T05:03:56;-3.30;94.80
20349;DHT22;10332;50.208;18.988;2022-11-20T05:06:25;-3.30;94.40
20349;DHT22;10332;50.208;18.988;2022-11-20T05:08:52;-3.30;94.20
20349;DHT22;10332;50.208;18.988;2022-11-20T05:11:21;-3.30;94.10
20349;DHT22;10332;50.208;18.988;2022-11-20T05:13:49;-3.30;93.60
20349;DHT22;10332;50.208;18.988;2022-11-20T05:16:23;-3.40;93.50
20349;DHT22;10332;50.208;18.988;2022-11-20T05:18:52;-3.40;93.10
20349;DHT22;10332;50.208;18.988;2022-11-20T05:21:22;-3.40;93.10
20349;DHT22;10332;50.208;18.988;2022-11-20T05:23:49;-3.40;92.80
20349;DHT22;10332;50.208;18.988;2022-11-20T05:26:21;-3.50;92.30
20349;DHT22;10332;50.208;18.988;2022-11-20T05:28:51;-3.50;91.80
20349;DHT22;10332;50.208;18.988;2022-11-20T05:31:21;-3.60;93.30
20349;DHT22;10332;50.208;18.988;2022-11-20T05:33:55;-3.60;95.70
20349;DHT22;10332;50.208;18.988;2022-11-20T05:36:24;-3.70;96.60
20349;DHT22;10332;50.208;18.988;2022-11-20T05:38:51;-3.70;97.70
20349;DHT22;10332;50.208;18.988;2022-11-20T05:41:27;-3.80;98.20
20349;DHT22;10332;50.208;18.988;2022-11-20T05:43:56;-3.80;99.70
20349;DHT22;10332;50.208;18.988;2022-11-20T05:46:25;-3.80;99.90
20349;DHT22;10332;50.208;18.988;2022-11-20T05:48:56;-3.80;99.70
20349;DHT22;10332;50.208;18.988;2022-11-20T05:51:25;-3.80;99.20
20349;DHT22;10332;50.208;18.988;2022-11-20T05:53:53;-3.80;99.10
20349;DHT22;10332;50.208;18.988;2022-11-20T05:56:21;-3.80;99.00
20349;DHT22;10332;50.208;18.988;2022-11-20T05:58:49;-3.80;99.10
20349;DHT22;10332;50.208;18.988;2022-11-20T06:01:23;-3.70;99.30
20349;DHT22;10332;50.208;18.988;2022-11-20T06:03:53;-3.70;99.20
20349;DHT22;10332;50.208;18.988;2022-11-20T06:06:21;-3.70;99.90
20349;DHT22;10332;50.208;18.988;2022-11-20T06:08:49;-3.70;99.90
20349;DHT22;10332;50.208;18.988;2022-11-20T06:11:17;-3.60;99.90
20349;DHT22;10332;50.208;18.988;2022-11-20T06:13:46;-3.70;99.90
20349;DHT22;10332;50.208;18.988;2022-11-20T06:16:16;-3.60;99.90
20349;DHT22;10332;50.208;18.988;2022-11-20T06:18:46;-3.60;99.90
20349;DHT22;10332;50.208;18.988;2022-11-20T06:21:19;-3.60;99.90
20349;DHT22;10332;50.208;18.988;2022-11-20T06:23:48;-3.60;99.90
20349;DHT22;10332;50.208;18.988;2022-11-20T06:26:20;-3.60;99.80
20349;DHT22;10332;50.208;18.988;2022-11-20T06:28:52;-3.60;99.90
20349;DHT22;10332;50.208;18.988;2022-11-20T06:31:22;-3.50;99.90
20349;DHT22;10332;50.208;18.988;2022-11-20T06:33:52;-3.50;99.90
20349;DHT22;10332;50.208;18.988;2022-11-20T06:36:22;-3.50;99.90
20349;DHT22;10332;50.208;18.988;2022-11-20T06:38:50;-3.50;99.90
20349;DHT22;10332;50.208;18.988;2022-11-20T06:41:21;-3.40;99.90
20349;DHT22;10332;50.208;18.988;2022-11-20T06:43:49;-3.40;99.90
20349;DHT22;10332;50.208;18.988;2022-11-20T06:46:18;-3.30;99.90
20349;DHT22;10332;50.208;18.988;2022-11-20T06:48:48;-3.20;99.90
20349;DHT22;10332;50.208;18.988;2022-11-20T06:51:16;-3.10;99.90
20349;DHT22;10332;50.208;18.988;2022-11-20T06:53:43;-3.00;99.80
20349;DHT22;10332;50.208;18.988;2022-11-20T06:56:11;-2.90;99.20
20349;DHT22;10332;50.208;18.988;2022-11-20T06:58:38;-2.80;98.70
20349;DHT22;10332;50.208;18.988;2022-11-20T07:01:08;-2.70;98.50
20349;DHT22;10332;50.208;18.988;2022-11-20T07:03:38;-2.60;98.20
20349;DHT22;10332;50.208;18.988;2022-11-20T07:06:07;-2.50;97.70
20349;DHT22;10332;50.208;18.988;2022-11-20T07:08:36;-2.40;97.10
20349;DHT22;10332;50.208;18.988;2022-11-20T07:11:05;-2.40;97.00
20349;DHT22;10332;50.208;18.988;2022-11-20T07:13:34;-2.30;96.40
20349;DHT22;10332;50.208;18.988;2022-11-20T07:16:04;-2.20;95.60
20349;DHT22;10332;50.208;18.988;2022-11-20T07:18:33;-2.10;95.30
20349;DHT22;10332;50.208;18.988;2022-11-20T07:21:08;-2.00;94.70
20349;DHT22;10332;50.208;18.988;2022-11-20T07:23:37;-1.90;94.90
20349;DHT22;10332;50.208;18.988;2022-11-20T07:26:07;-1.80;94.90
20349;DHT22;10332;50.208;18.988;2022-11-20T07:28:36;-1.70;94.40
20349;DHT22;10332;50.208;18.988;2022-11-20T07:31:05;-1.60;93.50
20349;DHT22;10332;50.208;18.988;2022-11-20T07:33:34;-1.50;93.40
20349;DHT22;10332;50.208;18.988;2022-11-20T07:36:02;-1.30;93.00
20349;DHT22;10332;50.208;18.988;2022-11-20T07:38:29;-1.20;92.40
20349;DHT22;10332;50.208;18.988;2022-11-20T07:40:57;-1.20;92.20
20349;DHT22;10332;50.208;18.988;2022-11-20T07:43:25;-1.10;92.20
20349;DHT22;10332;50.208;18.988;2022-11-20T07:45:55;-1.00;92.30
20349;DHT22;10332;50.208;18.988;2022-11-20T07:48:24;-0.80;92.40
20349;DHT22;10332;50.208;18.988;2022-11-20T07:50:56;-0.60;91.90
20349;DHT22;10332;50.208;18.988;2022-11-20T07:53:24;-0.40;91.50
20349;DHT22;10332;50.208;18.988;2022-11-20T07:55:52;-0.10;90.70
20349;DHT22;10332;50.208;18.988;2022-11-20T07:58:20;0.20;89.60
20349;DHT22;10332;50.208;18.988;2022-11-20T08:00:48;0.60;87.70
20349;DHT22;10332;50.208;18.988;2022-11-20T08:03:16;0.90;81.10
20349;DHT22;10332;50.208;18.988;2022-11-20T08:05:50;1.00;78.90
20349;DHT22;10332;50.208;18.988;2022-11-20T08:08:18;1.30;80.00
20349;DHT22;10332;50.208;18.988;2022-11-20T08:10:45;1.60;80.00
20349;DHT22;10332;50.208;18.988;2022-11-20T08:13:13;1.80;76.50
20349;DHT22;10332;50.208;18.988;2022-11-20T08:15:59;2.00;73.00
20349;DHT22;10332;50.208;18.988;2022-11-20T08:18:26;2.30;69.60
20349;DHT22;10332;50.208;18.988;2022-11-20T08:21:02;2.60;67.60
20349;DHT22;10332;50.208;18.988;2022-11-20T08:23:30;2.80;66.60
20349;DHT22;10332;50.208;18.988;2022-11-20T08:25:58;2.70;62.70
20349;DHT22;10332;50.208;18.988;2022-11-20T08:28:25;2.50;60.00
20349;DHT22;10332;50.208;18.988;2022-11-20T08:31:00;2.30;61.10
20349;DHT22;10332;50.208;18.988;2022-11-20T08:33:29;2.10;64.20
20349;DHT22;10332;50.208;18.988;2022-11-20T08:36:01;2.00;66.80
20349;DHT22;10332;50.208;18.988;2022-11-20T08:38:30;1.80;66.40
20349;DHT22;10332;50.208;18.988;2022-11-20T08:41:00;1.70;67.50
20349;DHT22;10332;50.208;18.988;2022-11-20T08:46:22;1.40;69.00
20349;DHT22;10332;50.208;18.988;2022-11-20T08:48:52;1.30;69.90
20349;DHT22;10332;50.208;18.988;2022-11-20T08:51:20;1.30;69.90
20349;DHT22;10332;50.208;18.988;2022-11-20T08:53:47;1.10;71.90
20349;DHT22;10332;50.208;18.988;2022-11-20T08:56:18;1.10;74.10
20349;DHT22;10332;50.208;18.988;2022-11-20T08:58:45;1.10;73.30
20349;DHT22;10332;50.208;18.988;2022-11-20T09:01:33;1.10;74.40
20349;DHT22;10332;50.208;18.988;2022-11-20T09:04:00;1.20;74.00
20349;DHT22;10332;50.208;18.988;2022-11-20T09:06:27;1.20;72.60
20349;DHT22;10332;50.208;18.988;2022-11-20T09:08:55;1.40;71.60
20349;DHT22;10332;50.208;18.988;2022-11-20T09:11:29;1.70;69.00
20349;DHT22;10332;50.208;18.988;2022-11-20T09:13:56;2.00;68.30
20349;DHT22;10332;50.208;18.988;2022-11-20T09:16:24;2.20;66.70
20349;DHT22;10332;50.208;18.988;2022-11-20T09:18:51;2.30;63.90
20349;DHT22;10332;50.208;18.988;2022-11-20T09:21:39;2.30;64.30
20349;DHT22;10332;50.208;18.988;2022-11-20T09:24:06;2.40;66.20
20349;DHT22;10332;50.208;18.988;2022-11-20T09:26:34;2.50;64.40
20349;DHT22;10332;50.208;18.988;2022-11-20T09:29:02;2.60;63.10
20349;DHT22;10332;50.208;18.988;2022-11-20T09:31:30;2.60;62.00
20349;DHT22;10332;50.208;18.988;2022-11-20T09:33:57;2.60;61.00
20349;DHT22;10332;50.208;18.988;2022-11-20T09:36:24;2.50;57.60
20349;DHT22;10332;50.208;18.988;2022-11-20T09:38:52;2.40;57.40
20349;DHT22;10332;50.208;18.988;2022-11-20T09:47:11;2.20;59.40
20349;DHT22;10332;50.208;18.988;2022-11-20T09:54:12;2.50;60.90
20349;DHT22;10332;50.208;18.988;2022-11-20T09:56:54;2.80;59.80
20349;DHT22;10332;50.208;18.988;2022-11-20T09:59:36;3.00;59.30
20349;DHT22;10332;50.208;18.988;2022-11-20T10:05:11;3.00;58.00
20349;DHT22;10332;50.208;18.988;2022-11-20T10:11:21;3.10;56.20
20349;DHT22;10332;50.208;18.988;2022-11-20T10:17:08;2.90;57.20
20349;DHT22;10332;50.208;18.988;2022-11-20T10:20:12;2.90;58.80
20349;DHT22;10332;50.208;18.988;2022-11-20T10:26:03;3.20;59.20
20349;DHT22;10332;50.208;18.988;2022-11-20T10:28:46;3.90;57.80
20349;DHT22;10332;50.208;18.988;2022-11-20T10:31:30;4.50;53.30
20349;DHT22;10332;50.208;18.988;2022-11-20T10:34:05;5.40;48.70
20349;DHT22;10332;50.208;18.988;2022-11-20T10:36:59;6.00;45.20
20349;DHT22;10332;50.208;18.988;2022-11-20T10:39:54;6.20;38.60
20349;DHT22;10332;50.208;18.988;2022-11-20T10:42:53;6.20;35.80
20349;DHT22;10332;50.208;18.988;2022-11-20T10:48:04;7.00;31.30
20349;DHT22;10332;50.208;18.988;2022-11-20T10:50:46;7.40;28.10
20349;DHT22;10332;50.208;18.988;2022-11-20T10:56:42;7.10;20.00
20349;DHT22;10332;50.208;18.988;2022-11-20T10:59:27;6.70;22.10
20349;DHT22;10332;50.208;18.988;2022-11-20T11:01:58;6.50;23.40
20349;DHT22;10332;50.208;18.988;2022-11-20T11:04:45;6.50;24.20
20349;DHT22;10332;50.208;18.988;2022-11-20T11:07:24;6.70;25.20
20349;DHT22;10332;50.208;18.988;2022-11-20T11:09:57;7.20;24.80
20349;DHT22;10332;50.208;18.988;2022-11-20T11:12:28;8.20;19.50
20349;DHT22;10332;50.208;18.988;2022-11-20T11:14:57;10.70;14.50
20349;DHT22;10332;50.208;18.988;2022-11-20T11:20:18;16.40;1.00
20349;DHT22;10332;50.208;18.988;2022-11-20T11:22:53;17.90;1.00
20349;DHT22;10332;50.208;18.988;2022-11-20T11:28:03;19.00;1.00
20349;DHT22;10332;50.208;18.988;2022-11-20T11:30:43;18.60;1.00
20349;DHT22;10332;50.208;18.988;2022-11-20T11:33:28;17.60;1.00
20349;DHT22;10332;50.208;18.988;2022-11-20T11:36:03;16.70;1.00
20349;DHT22;10332;50.208;18.988;2022-11-20T11:38:43;15.80;1.00
20349;DHT22;10332;50.208;18.988;2022-11-20T11:41:23;14.60;1.00
20349;DHT22;10332;50.208;18.988;2022-11-20T11:44:12;13.60;1.00
20349;DHT22;10332;50.208;18.988;2022-11-20T11:47:04;12.60;1.00
20349;DHT22;10332;50.208;18.988;2022-11-20T11:49:37;11.60;1.00
20349;DHT22;10332;50.208;18.988;2022-11-20T11:52:17;11.00;1.00
20349;DHT22;10332;50.208;18.988;2022-11-20T11:54:59;10.80;1.00
20349;DHT22;10332;50.208;18.988;2022-11-20T11:57:57;10.90;1.00
20349;DHT22;10332;50.208;18.988;2022-11-20T12:00:28;10.80;1.00
20349;DHT22;10332;50.208;18.988;2022-11-20T12:03:15;10.70;1.00
20349;DHT22;10332;50.208;18.988;2022-11-20T12:05:58;10.50;1.00
20349;DHT22;10332;50.208;18.988;2022-11-20T12:08:32;10.10;1.00
20349;DHT22;10332;50.208;18.988;2022-11-20T12:11:16;9.70;1.00
20349;DHT22;10332;50.208;18.988;2022-11-20T12:13:54;9.60;1.00
20349;DHT22;10332;50.208;18.988;2022-11-20T12:16:25;9.60;1.00
20349;DHT22;10332;50.208;18.988;2022-11-20T12:18:53;9.60;1.00
20349;DHT22;10332;50.208;18.988;2022-11-20T12:30:21;9.40;1.00
20349;DHT22;10332;50.208;18.988;2022-11-20T12:41:47;17.00;1.00
20349;DHT22;10332;50.208;18.988;2022-11-20T12:51:25;21.00;1.00
20349;DHT22;10332;50.208;18.988;2022-11-20T12:59:55;21.50;1.00
20349;DHT22;10332;50.208;18.988;2022-11-20T13:03:47;21.80;1.00
20349;DHT22;10332;50.208;18.988;2022-11-20T13:06:17;21.40;1.00
20349;DHT22;10332;50.208;18.988;2022-11-20T13:08:55;21.10;1.00
20349;DHT22;10332;50.208;18.988;2022-11-20T13:11:40;21.00;1.00
20349;DHT22;10332;50.208;18.988;2022-11-20T13:17:16;20.90;1.00
20349;DHT22;10332;50.208;18.988;2022-11-20T13:19:56;20.10;1.00
20349;DHT22;10332;50.208;18.988;2022-11-20T13:22:41;19.50;1.00
20349;DHT22;10332;50.208;18.988;2022-11-20T13:25:36;19.40;1.00
20349;DHT22;10332;50.208;18.988;2022-11-20T13:28:28;19.20;1.00
20349;DHT22;10332;50.208;18.988;2022-11-20T13:30:57;18.80;1.00
20349;DHT22;10332;50.208;18.988;2022-11-20T13:33:34;18.30;1.00
20349;DHT22;10332;50.208;18.988;2022-11-20T13:36:19;16.90;1.00
20349;DHT22;10332;50.208;18.988;2022-11-20T13:38:54;15.30;1.00
20349;DHT22;10332;50.208;18.988;2022-11-20T13:41:29;13.80;1.00
20349;DHT22;10332;50.208;18.988;2022-11-20T13:46:42;11.80;1.00
20349;DHT22;10332;50.208;18.988;2022-11-20T13:49:38;10.70;1.00
20349;DHT22;10332;50.208;18.988;2022-11-20T13:55:30;8.60;1.00
20349;DHT22;10332;50.208;18.988;2022-11-20T13:58:40;7.80;1.00
20349;DHT22;10332;50.208;18.988;2022-11-20T14:01:20;7.30;1.00
20349;DHT22;10332;50.208;18.988;2022-11-20T14:03:50;6.90;1.00
20349;DHT22;10332;50.208;18.988;2022-11-20T14:06:44;6.70;1.00
20349;DHT22;10332;50.208;18.988;2022-11-20T14:09:26;6.30;1.00
20349;DHT22;10332;50.208;18.988;2022-11-20T14:11:53;6.00;1.00
20349;DHT22;10332;50.208;18.988;2022-11-20T14:14:23;5.80;1.00
20349;DHT22;10332;50.208;18.988;2022-11-20T14:17:18;5.60;6.80
20349;DHT22;10332;50.208;18.988;2022-11-20T14:19:49;5.60;14.60
20349;DHT22;10332;50.208;18.988;2022-11-20T14:22:27;5.40;19.40
20349;DHT22;10332;50.208;18.988;2022-11-20T14:25:20;5.30;23.80
20349;DHT22;10332;50.208;18.988;2022-11-20T14:28:00;5.20;26.40
20349;DHT22;10332;50.208;18.988;2022-11-20T14:30:43;5.00;31.00
20349;DHT22;10332;50.208;18.988;2022-11-20T14:33:14;4.80;34.80
20349;DHT22;10332;50.208;18.988;2022-11-20T14:35:51;4.70;38.70
20349;DHT22;10332;50.208;18.988;2022-11-20T14:38:27;4.50;41.40
20349;DHT22;10332;50.208;18.988;2022-11-20T14:41:14;4.30;43.80
20349;DHT22;10332;50.208;18.988;2022-11-20T14:43:56;4.10;47.00
20349;DHT22;10332;50.208;18.988;2022-11-20T14:46:26;4.00;49.50
20349;DHT22;10332;50.208;18.988;2022-11-20T14:48:56;3.80;50.20
20349;DHT22;10332;50.208;18.988;2022-11-20T14:51:38;3.70;49.40
20349;DHT22;10332;50.208;18.988;2022-11-20T14:54:20;3.80;50.90
20349;DHT22;10332;50.208;18.988;2022-11-20T14:56:57;3.70;50.50
20349;DHT22;10332;50.208;18.988;2022-11-20T14:59:27;3.70;51.30
20349;DHT22;10332;50.208;18.988;2022-11-20T15:02:06;3.70;52.00
20349;DHT22;10332;50.208;18.988;2022-11-20T15:04:56;3.60;52.30
20349;DHT22;10332;50.208;18.988;2022-11-20T15:07:32;3.60;52.70
20349;DHT22;10332;50.208;18.988;2022-11-20T15:10:10;3.50;54.70
20349;DHT22;10332;50.208;18.988;2022-11-20T15:13:04;3.50;54.70
20349;DHT22;10332;50.208;18.988;2022-11-20T15:15:50;3.50;55.80
20349;DHT22;10332;50.208;18.988;2022-11-20T15:18:29;3.40;57.30
20349;DHT22;10332;50.208;18.988;2022-11-20T15:21:02;3.40;58.40
20349;DHT22;10332;50.208;18.988;2022-11-20T15:23:33;3.30;59.80
20349;DHT22;10332;50.208;18.988;2022-11-20T15:26:01;3.20;61.80
20349;DHT22;10332;50.208;18.988;2022-11-20T15:28:47;3.10;63.40
20349;DHT22;10332;50.208;18.988;2022-11-20T15:31:19;3.10;65.40
20349;DHT22;10332;50.208;18.988;2022-11-20T15:33:50;3.00;66.90
20349;DHT22;10332;50.208;18.988;2022-11-20T15:36:18;2.90;68.20
20349;DHT22;10332;50.208;18.988;2022-11-20T15:38:46;2.90;68.50
20349;DHT22;10332;50.208;18.988;2022-11-20T15:41:13;2.80;69.70
20349;DHT22;10332;50.208;18.988;2022-11-20T15:43:43;2.80;70.50
20349;DHT22;10332;50.208;18.988;2022-11-20T15:46:16;2.80;71.00
20349;DHT22;10332;50.208;18.988;2022-11-20T15:48:52;2.80;71.90
20349;DHT22;10332;50.208;18.988;2022-11-20T15:54:18;2.70;73.00
20349;DHT22;10332;50.208;18.988;2022-11-20T15:56:49;2.70;75.30
20349;DHT22;10332;50.208;18.988;2022-11-20T15:59:20;2.60;76.30
20349;DHT22;10332;50.208;18.988;2022-11-20T16:01:47;2.60;77.70
20349;DHT22;10332;50.208;18.988;2022-11-20T16:04:16;2.50;78.30
20349;DHT22;10332;50.208;18.988;2022-11-20T16:06:45;2.60;78.30
20349;DHT22;10332;50.208;18.988;2022-11-20T16:09:12;2.60;78.50
20349;DHT22;10332;50.208;18.988;2022-11-20T16:11:40;2.60;78.80
20349;DHT22;10332;50.208;18.988;2022-11-20T16:14:10;2.60;79.50
20349;DHT22;10332;50.208;18.988;2022-11-20T16:16:56;2.60;80.80
20349;DHT22;10332;50.208;18.988;2022-11-20T16:19:23;2.60;81.50
20349;DHT22;10332;50.208;18.988;2022-11-20T16:21:50;2.50;82.50
20349;DHT22;10332;50.208;18.988;2022-11-20T16:24:18;2.50;83.50
20349;DHT22;10332;50.208;18.988;2022-11-20T16:26:46;2.50;84.50
20349;DHT22;10332;50.208;18.988;2022-11-20T16:29:14;2.40;85.10
20349;DHT22;10332;50.208;18.988;2022-11-20T16:31:41;2.40;86.20
20349;DHT22;10332;50.208;18.988;2022-11-20T16:34:09;2.30;87.30
20349;DHT22;10332;50.208;18.988;2022-11-20T16:36:42;2.30;89.40
20349;DHT22;10332;50.208;18.988;2022-11-20T16:39:13;2.30;90.50
20349;DHT22;10332;50.208;18.988;2022-11-20T16:41:47;2.30;91.20
20349;DHT22;10332;50.208;18.988;2022-11-20T16:44:15;2.30;91.00
20349;DHT22;10332;50.208;18.988;2022-11-20T16:46:42;2.30;91.30
20349;DHT22;10332;50.208;18.988;2022-11-20T16:49:13;2.30;91.30
20349;DHT22;10332;50.208;18.988;2022-11-20T16:51:41;2.30;91.80
20349;DHT22;10332;50.208;18.988;2022-11-20T16:54:09;2.30;92.30
20349;DHT22;10332;50.208;18.988;2022-11-20T16:56:42;2.30;92.80
20349;DHT22;10332;50.208;18.988;2022-11-20T16:59:09;2.20;92.60
20349;DHT22;10332;50.208;18.988;2022-11-20T17:01:37;2.10;92.70
20349;DHT22;10332;50.208;18.988;2022-11-20T17:04:06;2.10;93.90
20349;DHT22;10332;50.208;18.988;2022-11-20T17:06:36;2.00;94.50
20349;DHT22;10332;50.208;18.988;2022-11-20T17:09:06;2.00;95.10
20349;DHT22;10332;50.208;18.988;2022-11-20T17:11:37;1.90;96.60
20349;DHT22;10332;50.208;18.988;2022-11-20T17:14:05;1.80;97.40
20349;DHT22;10332;50.208;18.988;2022-11-20T17:16:36;1.80;97.70
20349;DHT22;10332;50.208;18.988;2022-11-20T17:19:04;1.80;99.90
20349;DHT22;10332;50.208;18.988;2022-11-20T17:21:33;1.80;99.90
20349;DHT22;10332;50.208;18.988;2022-11-20T17:24:10;1.70;99.90
20349;DHT22;10332;50.208;18.988;2022-11-20T17:26:40;1.70;99.90
20349;DHT22;10332;50.208;18.988;2022-11-20T17:29:14;1.60;99.90